Monatstabelle

Bitte in den Auwahlmenüs den gewünschte Zeiraum wählen und die Schaltfläche "Anfrage absenden" betätigen. Beginn der Aufzeichnung ist 2007 - Dezember. Vor diesem Zeitraum sind keine Daten verfügbar.

2021 - Dezember

 

Datum Temperatur (°C) Luftdruck (hPa) Luftfeuchte (%) Regen
(l/m²)
Wind (km/h)
avg: min: max: avg: min: max: avg: min: max: avg: max:
01.12.2021 6,6 4,0 10,0 1000,7 996,1 1004,2 74 64 83 0,0 4,7 17,2
02.12.2021 4,8 2,7 6,6 996,9 995,8 999,2 85 74 91 0,0 1,2 7,7
03.12.2021 0,9 -4,4 4,5 1008,1 999,4 1012,0 77 59 91 0,0 7,6 18,3
04.12.2021 0,8 -4,9 6,5 1001,9 998,2 1009,8 67 42 85 0,0 5,6 13,4
05.12.2021 1,3 -0,1 2,9 1000,7 998,2 1003,2 90 85 93 31,4 1,9 9,5
06.12.2021 1,5 -2,3 4,4 1006,3 1002,9 1008,8 84 67 92 0,5 6,8 18,3
07.12.2021 -0,7 -4,3 2,5 1007,8 1006,9 1008,6 87 79 93 0,0 2,8 11,3
08.12.2021 0,1 -50,0 3,3 1001,8 998,6 1007,2 78 60 91 0,0 6,9 73,9
09.12.2021 -0,1 -0,8 2,1 1000,7 999,7 1002,4 88 78 91 0,0 0,6 10,8
10.12.2021 -0,9 -5,1 4,6 998,8 996,0 1002,1 86 71 94 3,6 5,4 15,3
11.12.2021 -0,5 -3,8 2,5 1008,3 999,1 1016,4 88 82 91 0,2 4,4 22,2
12.12.2021 1,8 0,5 3,7 1019,1 1016,3 1020,8 75 68 82 0,2 14,1 24,6
13.12.2021 4,7 3,1 5,8 1021,0 1018,7 1023,4 81 72 86 6,0 7,6 13,2
14.12.2021 6,5 4,5 8,4 1022,5 1021,4 1023,9 86 81 90 0,0 5,7 12,6
15.12.2021 5,5 3,6 7,5 1026,3 1023,7 1028,2 80 74 85 0,0 6,7 16,9
16.12.2021 5,1 1,9 6,7 1027,9 1026,6 1029,2 79 73 89 0,0 7,1 17,9
17.12.2021 5,2 0,8 8,6 1027,9 1026,7 1029,3 72 61 85 0,0 12,2 20,4
18.12.2021 4,4 1,9 7,7 1027,9 1022,9 1030,5 66 54 75 0,0 9,6 24,0
19.12.2021 5,3 0,7 12,6 1016,0 1012,0 1022,9 60 43 72 0,0 8,6 23,3
20.12.2021 2,7 0,3 5,6 1016,1 1011,7 1019,8 68 54 87 0,3 14,0 20,8
21.12.2021 -1,5 -4,7 3,9 1020,4 1019,4 1021,6 69 52 81 0,0 2,1 12,9
22.12.2021 -4,0 -7,2 1,7 1022,1 1019,9 1024,4 80 65 89 0,0 1,2 6,3
23.12.2021 -5,8 -9,2 -2,4 1013,3 1006,2 1019,9 87 83 90 0,0 0,9 4,8
24.12.2021 5,7 -2,4 11,2 1002,2 1000,9 1006,2 80 67 88 0,0 3,2 13,2
25.12.2021 2,1 -2,5 5,5 1003,7 1001,4 1007,8 87 84 91 0,0 4,7 12,4
26.12.2021 -2,4 -3,1 -1,3 1008,0 1006,8 1008,8 80 72 88 0,0 3,2 9,8
27.12.2021 -1,6 -4,4 2,1 1005,6 1003,6 1007,9 90 84 92 0,0 0,8 4,2
28.12.2021 -0,2 -4,3 3,1 1002,7 1000,8 1004,6 89 83 93 0,0 1,0 5,1
29.12.2021 2,9 -0,9 6,7 1004,5 1000,3 1009,9 92 91 95 2,8 1,8 8,9
30.12.2021 7,8 3,0 13,6 1014,1 1009,7 1017,6 91 80 95 2,4 1,9 7,4
31.12.2021 10,2 5,4 17,4 1018,0 1016,1 1019,8 81 57 93 0,0 2,7 8,0
avg. 2,2 1011,3 81   ---
  Summe Regen: 47,4  
 
Min-Datum 08.12.2021 02.12.2021 04.12.2021 --- ---
Min-Zeit 07:26 01:00 11:42 --- ---
Minimum -50,0 995,8 42 --- ---
 

Max-Datum

31.12.2021 18.12.2021 29.12.2021 05.12.2021 08.12.2021
Max-Zeit 12:58 11:02 10:48 11:44 07:26
Maximum 17,4 1030,5 95 31,4 73,9
 

 

  Letztes Jahr
gleiches Monat
Eistage max < 0°C 2 0
Frosttage min < 0°C 18 14
Sommertage max >=25°C 0 0
Heiße Tage max >=30°C 0 0

 

<<< nach oben >>>